Time;durP1;ratioP1;P1;durP2;ratioP2;P2;SDS_P1;SDS_P2;PMS_P1;PMS_P2;Temp;Humidity;BMP_temperature;BMP_pressure;BME280_temperature;BME280_humidity;BME280_pressure;Samples;Min_cycle;Max_cycle;Signal;HPM_P1;HPM_P2
2023/08/28 00:02:05;;;;;;;0.00;0.00;;;;;;;15.56;100.00;101114.59;5071381;28;20194;-46
2023/08/28 00:04:31;;;;;;;0.00;0.00;;;;;;;15.54;100.00;101127.53;5071582;28;20123;-45
2023/08/28 00:06:56;;;;;;;0.00;0.00;;;;;;;15.54;100.00;101125.66;5071524;28;20474;-45
2023/08/28 00:09:22;;;;;;;0.00;0.00;;;;;;;15.53;100.00;101115.00;5071387;28;20033;-45
2023/08/28 00:11:47;;;;;;;0.00;0.00;;;;;;;15.54;100.00;101117.53;5071894;28;21115;-45
2023/08/28 00:14:12;;;;;;;0.00;0.00;;;;;;;15.56;100.00;101114.59;5071114;28;20025;-44
2023/08/28 00:16:38;;;;;;;0.00;0.00;;;;;;;15.51;100.00;101107.09;5071282;28;20390;-46
2023/08/28 00:19:03;;;;;;;0.00;0.00;;;;;;;15.50;100.00;101102.69;5080263;28;20101;-45
2023/08/28 00:21:29;;;;;;;0.00;0.00;;;;;;;15.47;100.00;101100.41;5071616;28;20033;-49
2023/08/28 00:23:55;;;;;;;0.00;0.00;;;;;;;15.42;100.00;101094.75;5070996;28;20104;-46
2023/08/28 00:26:20;;;;;;;0.00;0.00;;;;;;;15.40;100.00;101096.84;5071451;28;20035;-45
2023/08/28 00:28:45;;;;;;;0.00;0.00;;;;;;;15.37;100.00;101095.38;5071732;28;20112;-46
2023/08/28 00:31:11;;;;;;;0.00;0.00;;;;;;;15.37;100.00;101094.56;5077667;28;20024;-44
2023/08/28 00:33:36;;;;;;;0.00;0.00;;;;;;;15.34;100.00;101100.41;5095424;28;20165;-45
2023/08/28 00:36:01;;;;;;;0.00;0.00;;;;;;;15.31;100.00;101095.38;5095166;28;20060;-47
2023/08/28 00:38:27;;;;;;;0.00;0.00;;;;;;;15.28;100.00;101101.22;5092135;28;20044;-46
2023/08/28 00:40:52;;;;;;;0.00;0.00;;;;;;;15.26;100.00;101097.88;5075020;28;20051;-46
2023/08/28 00:43:17;;;;;;;0.00;0.00;;;;;;;15.23;100.00;101103.72;5074415;28;20759;-44
2023/08/28 00:45:43;;;;;;;0.00;0.00;;;;;;;15.17;100.00;101107.28;5091428;28;20036;-47
2023/08/28 00:48:14;;;;;;;0.00;0.00;;;;;;;15.12;100.00;101108.72;5086885;28;20039;-46
2023/08/28 00:50:40;;;;;;;0.00;0.00;;;;;;;15.07;100.00;101100.34;5036903;28;20033;-44
2023/08/28 00:53:05;;;;;;;0.00;0.00;;;;;;;15.02;100.00;101110.97;5054780;28;20353;-44
2023/08/28 00:55:32;;;;;;;0.00;0.00;;;;;;;14.96;100.00;101109.09;5069004;28;20033;-47
2023/08/28 00:57:57;;;;;;;0.00;0.00;;;;;;;14.93;100.00;101107.63;5056827;28;20111;-46
2023/08/28 01:00:22;;;;;;;0.00;0.00;;;;;;;14.87;100.00;101105.72;5074303;28;20028;-44
2023/08/28 01:02:48;;;;;;;0.00;0.00;;;;;;;14.83;100.00;101103.63;5074391;28;20045;-47
2023/08/28 01:05:15;;;;;;;0.00;0.00;;;;;;;14.79;100.00;101099.66;5063740;28;20033;-45
2023/08/28 01:07:58;;;;;;;0.00;0.00;;;;;;;14.73;100.00;101103.19;5056520;28;20056;-46
2023/08/28 01:10:34;;;;;;;0.00;0.00;;;;;;;14.65;100.00;101106.91;5046685;28;20052;-43
2023/08/28 01:13:02;;;;;;;0.00;0.00;;;;;;;14.59;100.00;101105.84;5056647;28;20162;-45
2023/08/28 01:15:30;;;;;;;0.00;0.00;;;;;;;14.57;100.00;101104.38;5074075;28;20467;-45
2023/08/28 01:18:02;;;;;;;0.00;0.00;;;;;;;14.49;100.00;101108.88;5056525;28;20107;-43
2023/08/28 01:20:29;;;;;;;0.00;0.00;;;;;;;14.46;100.00;101108.47;5074251;28;20488;-47
2023/08/28 01:23:09;;;;;;;0.00;0.00;;;;;;;14.42;100.00;101109.88;5060970;28;20029;-47
2023/08/28 01:25:35;;;;;;;0.00;0.00;;;;;;;14.38;100.00;101111.34;5074418;28;20041;-45
2023/08/28 01:28:00;;;;;;;0.00;0.00;;;;;;;14.33;100.00;101105.69;5073760;28;20120;-45
2023/08/28 01:30:26;;;;;;;0.00;0.00;;;;;;;14.28;100.00;101107.09;5056004;28;20099;-44
2023/08/28 01:32:52;;;;;;;0.00;0.00;;;;;;;14.27;100.00;101110.03;5056286;28;20051;-47
2023/08/28 01:35:24;;;;;;;0.00;0.00;;;;;;;14.24;100.00;101105.84;5073844;28;20467;-44
2023/08/28 01:37:55;;;;;;;0.00;0.00;;;;;;;14.21;100.00;101110.81;5055859;28;20492;-46
2023/08/28 01:40:24;;;;;;;0.00;0.00;;;;;;;14.14;100.00;101108.09;5073321;28;20020;-45
2023/08/28 01:42:50;;;;;;;0.00;0.00;;;;;;;14.14;100.00;101113.50;5075031;28;20386;-46
2023/08/28 01:45:16;;;;;;;0.00;0.00;;;;;;;14.10;100.00;101114.09;5062521;28;20039;-47
2023/08/28 01:47:41;;;;;;;0.00;0.00;;;;;;;14.07;100.00;101106.38;5073733;28;20028;-45
2023/08/28 01:50:07;;;;;;;0.00;0.00;;;;;;;14.01;100.00;101108.81;5073913;28;20033;-43
2023/08/28 01:52:33;;;;;;;0.00;0.00;;;;;;;13.96;100.00;101107.75;5082429;28;20067;-45
2023/08/28 01:54:58;;;;;;;0.00;0.00;;;;;;;13.91;100.00;101105.63;5081575;28;20115;-48
2023/08/28 01:57:24;;;;;;;0.00;0.00;;;;;;;13.90;100.00;101109.38;5053921;28;20033;-46
2023/08/28 01:59:49;;;;;;;0.00;0.00;;;;;;;13.89;100.00;101101.44;5073023;28;20137;-44
2023/08/28 02:02:14;;;;;;;0.00;0.00;;;;;;;13.88;100.00;101110.63;5073439;28;20122;-46
2023/08/28 02:04:40;;;;;;;0.00;0.00;;;;;;;13.86;100.00;101107.25;5080746;28;20028;-45
2023/08/28 02:07:05;;;;;;;0.00;0.00;;;;;;;13.83;100.00;101113.91;5093560;28;20428;-47
2023/08/28 02:09:30;;;;;;;0.00;0.00;;;;;;;13.78;100.00;101129.88;5078820;28;20025;-46
2023/08/28 02:11:56;;;;;;;0.00;0.00;;;;;;;13.76;100.00;101130.06;5073144;28;20035;-47
2023/08/28 02:14:21;;;;;;;0.00;0.00;;;;;;;13.72;100.00;101120.69;5073022;28;20020;-46
2023/08/28 02:16:47;;;;;;;0.00;0.00;;;;;;;13.67;100.00;101128.56;5073312;28;20032;-41
2023/08/28 02:19:12;;;;;;;0.00;0.00;;;;;;;13.68;100.00;101130.22;5079959;28;20366;-43
2023/08/28 02:21:38;;;;;;;0.00;0.00;;;;;;;13.69;100.00;101131.03;5074083;28;20051;-46
2023/08/28 02:24:03;;;;;;;0.00;0.00;;;;;;;13.69;100.00;101133.75;5055206;28;20090;-46
2023/08/28 02:26:29;;;;;;;0.00;0.00;;;;;;;13.68;100.00;101127.50;5073167;28;20036;-42
2023/08/28 02:28:54;;;;;;;0.00;0.00;;;;;;;13.70;100.00;101125.44;5076270;28;20790;-42
2023/08/28 02:31:19;;;;;;;0.00;0.00;;;;;;;13.70;100.00;101120.03;5072909;28;20455;-43
2023/08/28 02:33:45;;;;;;;0.00;0.00;;;;;;;13.69;100.00;101115.69;5072669;28;20486;-45
2023/08/28 02:36:10;;;;;;;0.00;0.00;;;;;;;13.70;100.00;101109.22;5072784;28;20044;-44
2023/08/28 02:38:36;;;;;;;0.00;0.00;;;;;;;13.70;100.00;101109.22;5082837;28;20099;-45
2023/08/28 02:41:05;;;;;;;0.00;0.00;;;;;;;13.71;100.00;101094.66;5092922;28;20115;-49
2023/08/28 02:43:31;;;;;;;0.00;0.00;;;;;;;13.69;100.00;101085.91;5089872;28;20056;-48
2023/08/28 02:45:56;;;;;;;0.00;0.00;;;;;;;13.69;100.00;101080.50;5072350;28;20060;-45
2023/08/28 02:48:22;;;;;;;0.00;0.00;;;;;;;13.69;100.00;101074.25;5072596;28;20028;-45
2023/08/28 02:50:50;;;;;;;0.00;0.00;;;;;;;13.68;100.00;101089.63;5072240;28;20082;-49
2023/08/28 02:53:16;;;;;;;0.00;0.00;;;;;;;13.68;100.00;101086.94;5071479;28;20099;-45
2023/08/28 02:55:41;;;;;;;0.00;0.00;;;;;;;13.65;100.00;101089.22;5072033;28;20411;-48
2023/08/28 02:58:08;;;;;;;0.00;0.00;;;;;;;13.64;100.00;101087.50;5054574;28;20167;-44
2023/08/28 03:00:34;;;;;;;0.00;0.00;;;;;;;13.59;100.00;101082.72;5071917;28;20072;-48
2023/08/28 03:03:00;;;;;;;0.00;0.00;;;;;;;13.59;100.00;101078.13;5054484;28;20078;-45
2023/08/28 03:05:26;;;;;;;0.00;0.00;;;;;;;13.61;100.00;101075.22;5072374;28;20041;-47
2023/08/28 03:07:52;;;;;;;0.00;0.00;;;;;;;13.63;100.00;101073.16;5072075;28;20090;-46
2023/08/28 03:10:17;;;;;;;0.00;0.00;;;;;;;13.68;100.00;101073.41;5072247;28;20040;-45
2023/08/28 03:12:42;;;;;;;0.00;0.00;;;;;;;13.73;100.00;101076.38;5084273;28;20554;-44
2023/08/28 03:15:08;;;;;;;0.00;0.00;;;;;;;13.77;100.00;101074.94;5080401;28;20032;-47
2023/08/28 03:17:33;;;;;;;0.00;0.00;;;;;;;13.80;100.00;101076.44;5072095;28;20036;-45
2023/08/28 03:19:59;;;;;;;0.00;0.00;;;;;;;13.81;100.00;101083.50;5087486;28;20463;-45
2023/08/28 03:22:25;;;;;;;0.00;0.00;;;;;;;13.79;100.00;101085.56;5092150;28;20028;-45
2023/08/28 03:24:52;;;;;;;0.00;0.00;;;;;;;13.76;100.00;101092.19;5086079;28;20048;-50
2023/08/28 03:27:19;;;;;;;0.00;0.00;;;;;;;13.74;100.00;101105.06;5092262;28;20151;-50
2023/08/28 03:29:44;;;;;;;0.00;0.00;;;;;;;13.71;100.00;101110.88;5075506;28;20051;-46
2023/08/28 03:32:10;;;;;;;0.00;0.00;;;;;;;13.68;100.00;101111.28;5071696;28;20635;-49
2023/08/28 03:34:35;;;;;;;0.00;0.00;;;;;;;13.65;100.00;101114.38;5071430;28;20119;-46
2023/08/28 03:37:00;;;;;;;0.00;0.00;;;;;;;13.63;100.00;101129.13;5071538;28;20033;-45
2023/08/28 03:39:26;;;;;;;0.00;0.00;;;;;;;13.57;100.00;101120.75;5083052;28;20043;-45
2023/08/28 03:41:51;;;;;;;0.00;0.00;;;;;;;13.55;100.00;101122.81;5070965;28;20075;-47
2023/08/28 03:44:16;;;;;;;0.00;0.00;;;;;;;13.54;100.00;101121.16;5070843;28;20059;-45
2023/08/28 03:46:42;;;;;;;0.00;0.00;;;;;;;13.54;100.00;101125.72;5071118;28;20044;-46
2023/08/28 03:49:07;;;;;;;0.00;0.00;;;;;;;13.52;100.00;101133.19;5078428;28;20079;-46
2023/08/28 03:51:32;;;;;;;0.00;0.00;;;;;;;13.52;100.00;101134.03;5089331;28;20039;-48
2023/08/28 03:53:58;;;;;;;0.00;0.00;;;;;;;13.56;100.00;101137.16;5071481;28;20071;-47
2023/08/28 03:56:23;;;;;;;0.00;0.00;;;;;;;13.57;100.00;101136.16;5083225;28;20035;-45
2023/08/28 03:58:49;;;;;;;0.00;0.00;;;;;;;13.58;100.00;101132.41;5082798;28;20387;-43
2023/08/28 04:01:14;;;;;;;0.00;0.00;;;;;;;13.61;100.00;101134.72;5070883;28;20060;-44
2023/08/28 04:03:39;;;;;;;0.00;0.00;;;;;;;13.61;100.00;101148.25;5070960;28;20023;-50
2023/08/28 04:06:05;;;;;;;0.00;0.00;;;;;;;13.60;100.00;101144.72;5071526;28;20033;-46
2023/08/28 04:08:30;;;;;;;0.00;0.00;;;;;;;13.60;100.00;101150.13;5071312;28;20025;-47
2023/08/28 04:10:58;;;;;;;0.00;0.00;;;;;;;13.63;100.00;101153.47;5070758;28;20056;-44
2023/08/28 04:13:23;;;;;;;0.00;0.00;;;;;;;13.64;100.00;101147.00;5066182;28;20418;-47
2023/08/28 04:15:49;;;;;;;0.00;0.00;;;;;;;13.65;100.00;101146.84;5070095;28;20162;-44
2023/08/28 04:18:14;;;;;;;0.00;0.00;;;;;;;13.65;100.00;101154.13;5090286;28;20032;-47
2023/08/28 04:20:39;;;;;;;0.00;0.00;;;;;;;13.61;100.00;101159.91;5073465;28;20063;-47
2023/08/28 04:23:05;;;;;;;0.00;0.00;;;;;;;13.61;100.00;101157.22;5069864;28;20387;-44
2023/08/28 04:25:30;;;;;;;0.00;0.00;;;;;;;13.60;100.00;101157.41;5070085;28;20050;-46
2023/08/28 04:27:56;;;;;;;0.00;0.00;;;;;;;13.58;100.00;101168.41;5070031;28;20123;-45
2023/08/28 04:30:21;;;;;;;0.00;0.00;;;;;;;13.60;100.00;101179.03;5069910;28;20032;-44
2023/08/28 04:32:47;;;;;;;0.00;0.00;;;;;;;13.64;100.00;101174.06;5071534;28;20051;-46
2023/08/28 04:35:12;;;;;;;0.00;0.00;;;;;;;13.64;100.00;101185.75;5070110;28;20084;-49
2023/08/28 04:37:38;;;;;;;0.00;0.00;;;;;;;13.69;100.00;101182.44;5069553;28;20024;-46
2023/08/28 04:40:04;;;;;;;0.00;0.00;;;;;;;13.70;100.00;101184.13;5069985;28;20020;-47
2023/08/28 04:42:30;;;;;;;0.00;0.00;;;;;;;13.70;100.00;101174.13;5069735;28;20029;-45
2023/08/28 04:44:55;;;;;;;0.00;0.00;;;;;;;13.72;100.00;101177.50;5070006;28;20184;-46
2023/08/28 04:47:22;;;;;;;0.00;0.00;;;;;;;13.76;100.00;101195.00;5070006;28;20474;-45
2023/08/28 04:49:47;;;;;;;0.00;0.00;;;;;;;13.82;100.00;101196.94;5070280;28;20086;-46
2023/08/28 04:52:13;;;;;;;0.00;0.00;;;;;;;13.94;100.00;101209.94;5069947;28;20032;-47
2023/08/28 04:54:38;;;;;;;0.00;0.00;;;;;;;14.07;100.00;101206.50;5086181;28;20162;-46
2023/08/28 04:57:04;;;;;;;0.00;0.00;;;;;;;14.16;100.00;101206.13;5085380;28;20036;-47
2023/08/28 04:59:29;;;;;;;0.00;0.00;;;;;;;14.20;100.00;101212.84;5069810;28;20032;-48
2023/08/28 05:01:54;;;;;;;0.00;0.00;;;;;;;14.30;100.00;101215.22;5069725;28;20071;-42
2023/08/28 05:04:20;;;;;;;0.00;0.00;;;;;;;14.34;100.00;101221.06;5070068;28;20029;-41
2023/08/28 05:06:45;;;;;;;0.00;0.00;;;;;;;14.32;100.00;101225.84;5059285;28;20682;-43
2023/08/28 05:09:11;;;;;;;0.00;0.00;;;;;;;14.26;100.00;101220.16;5069958;28;20036;-47
2023/08/28 05:11:36;;;;;;;0.00;0.00;;;;;;;14.23;100.00;101217.88;5071324;28;20055;-48
2023/08/28 05:14:02;;;;;;;0.00;0.00;;;;;;;14.24;100.00;101219.56;5069378;28;20550;-46
2023/08/28 05:16:27;;;;;;;0.00;0.00;;;;;;;14.29;100.00;101218.94;5070339;28;20039;-48
2023/08/28 05:18:53;;;;;;;0.00;0.00;;;;;;;14.31;100.00;101218.75;5086477;28;20040;-46
2023/08/28 05:21:18;;;;;;;0.00;0.00;;;;;;;14.28;100.00;101225.41;5072896;28;20032;-45
2023/08/28 05:23:43;;;;;;;0.00;0.00;;;;;;;14.31;100.00;101229.59;5073984;28;20481;-47
2023/08/28 05:26:09;;;;;;;0.00;0.00;;;;;;;14.32;100.00;101226.66;5080673;28;20032;-47
2023/08/28 05:28:38;;;;;;;0.00;0.00;;;;;;;14.32;100.00;101231.25;5058252;28;20044;-45
2023/08/28 05:31:04;;;;;;;0.00;0.00;;;;;;;14.38;100.00;101230.47;5056348;28;20463;-46
2023/08/28 05:33:34;;;;;;;0.00;0.00;;;;;;;14.42;100.00;101234.44;5073772;28;20107;-46
2023/08/28 05:35:59;;;;;;;0.00;0.00;;;;;;;14.45;100.00;101239.47;5072292;28;20036;-47
2023/08/28 05:38:25;;;;;;;0.00;0.00;;;;;;;14.47;100.00;101242.81;5072277;28;20659;-47
2023/08/28 05:40:50;;;;;;;0.00;0.00;;;;;;;14.51;100.00;101241.41;5077611;28;20077;-47
2023/08/28 05:43:15;;;;;;;0.00;0.00;;;;;;;14.53;100.00;101239.34;5072149;28;20028;-46
2023/08/28 05:45:41;;;;;;;0.00;0.00;;;;;;;14.55;100.00;101237.28;5077284;28;20355;-48
2023/08/28 05:48:07;;;;;;;0.00;0.00;;;;;;;14.54;100.00;101243.75;5080521;28;20157;-44
2023/08/28 05:50:32;;;;;;;0.00;0.00;;;;;;;14.52;100.00;101243.06;5073323;28;20028;-47
2023/08/28 05:52:58;;;;;;;0.00;0.00;;;;;;;14.49;100.00;101243.47;5073893;28;20035;-47
2023/08/28 05:55:24;;;;;;;0.00;0.00;;;;;;;14.48;100.00;101242.63;5077969;28;20363;-49
2023/08/28 05:57:49;;;;;;;0.00;0.00;;;;;;;14.50;100.00;101234.28;5078235;28;20055;-49
2023/08/28 06:00:15;;;;;;;0.00;0.00;;;;;;;14.55;100.00;101237.28;5071216;28;20036;-44
2023/08/28 06:02:40;;;;;;;0.00;0.00;;;;;;;14.60;100.00;101226.69;5072344;28;20072;-49
2023/08/28 06:05:07;;;;;;;0.00;0.00;;;;;;;14.68;100.00;101233.81;5073099;28;20040;-50
2023/08/28 06:07:33;;;;;;;0.00;0.00;;;;;;;14.69;100.00;101233.63;5074887;28;20528;-47
2023/08/28 06:09:58;;;;;;;0.00;0.00;;;;;;;14.77;100.00;101245.31;5073071;28;20029;-49
2023/08/28 06:12:24;;;;;;;0.00;0.00;;;;;;;14.79;100.00;101248.69;5071684;28;20028;-51
2023/08/28 06:14:50;;;;;;;0.00;0.00;;;;;;;14.81;100.00;101249.31;5072174;28;20079;-44
2023/08/28 06:17:15;;;;;;;0.00;0.00;;;;;;;14.86;100.00;101244.97;5072730;28;20574;-47
2023/08/28 06:19:41;;;;;;;0.00;0.00;;;;;;;14.91;100.00;101241.66;5081285;28;20028;-47
2023/08/28 06:22:06;;;;;;;0.00;0.00;;;;;;;14.95;100.00;101242.91;5076075;28;20060;-47
2023/08/28 06:24:32;;;;;;;0.00;0.00;;;;;;;15.06;100.00;101249.63;5072853;28;20355;-53
2023/08/28 06:26:57;;;;;;;0.00;0.00;;;;;;;15.22;100.00;101243.91;5072867;28;20034;-47
2023/08/28 06:29:22;;;;;;;0.00;0.00;;;;;;;15.40;100.00;101243.31;5072844;28;20147;-48
2023/08/28 06:31:48;;;;;;;0.00;0.00;;;;;;;15.72;100.00;101249.91;5072309;28;20097;-50
2023/08/28 06:34:14;;;;;;;0.00;0.00;;;;;;;15.97;100.00;101250.13;5070997;28;20028;-50
2023/08/28 06:36:40;;;;;;;0.00;0.00;;;;;;;16.25;100.00;101249.09;5064321;28;20033;-44
2023/08/28 06:39:06;;;;;;;0.00;0.00;;;;;;;16.70;100.00;101257.41;5072093;28;20051;-45
2023/08/28 06:41:31;;;;;;;0.00;0.00;;;;;;;16.88;100.00;101251.34;5072600;28;20051;-48
2023/08/28 06:43:56;;;;;;;0.00;0.00;;;;;;;16.81;100.00;101239.63;5072558;28;20144;-47
2023/08/28 06:46:22;;;;;;;0.00;0.00;;;;;;;16.79;100.00;101212.66;5071546;28;20048;-49
2023/08/28 06:48:48;;;;;;;0.00;0.00;;;;;;;16.72;100.00;101198.25;5070334;28;20116;-48
2023/08/28 06:51:13;;;;;;;0.00;0.00;;;;;;;16.63;100.00;101199.50;5073926;28;20029;-48
2023/08/28 06:53:39;;;;;;;0.00;0.00;;;;;;;16.63;100.00;101197.63;5071035;28;20035;-46
2023/08/28 06:56:05;;;;;;;0.00;0.00;;;;;;;16.61;100.00;101198.88;5070556;28;20167;-48
2023/08/28 06:58:31;;;;;;;0.00;0.00;;;;;;;16.60;100.00;101199.94;5073155;28;20037;-46
2023/08/28 07:00:57;;;;;;;0.00;0.00;;;;;;;16.59;100.00;101206.44;5078885;28;20390;-47
2023/08/28 07:03:23;;;;;;;0.00;0.00;;;;;;;16.67;100.00;101217.06;5072554;28;20036;-45
2023/08/28 07:05:49;;;;;;;0.00;0.00;;;;;;;16.69;100.00;101223.09;5070906;28;20044;-44
2023/08/28 07:08:14;;;;;;;0.00;0.00;;;;;;;16.73;100.00;101232.53;5072113;28;20036;-47
2023/08/28 07:10:40;;;;;;;0.00;0.00;;;;;;;16.78;100.00;101226.47;5071696;28;20035;-45
2023/08/28 07:13:05;;;;;;;0.00;0.00;;;;;;;16.76;100.00;101228.53;5070586;28;20051;-48
2023/08/28 07:15:31;;;;;;;0.03;0.00;;;;;;;16.77;100.00;101232.91;5069654;28;20418;-48
2023/08/28 07:17:56;;;;;;;0.00;0.00;;;;;;;16.83;100.00;101230.22;5073421;28;20082;-48
2023/08/28 07:20:23;;;;;;;0.00;0.00;;;;;;;16.92;100.00;101221.81;5070693;28;20032;-46
2023/08/28 07:22:49;;;;;;;0.00;0.00;;;;;;;16.97;100.00;101219.31;5072980;28;20479;-45
2023/08/28 07:25:21;;;;;;;0.00;0.00;;;;;;;17.14;100.00;101220.50;5074302;28;20020;-47
2023/08/28 07:27:47;;;;;;;0.00;0.00;;;;;;;17.37;100.00;101216.41;5073578;28;20574;-46
2023/08/28 07:30:12;;;;;;;0.00;0.00;;;;;;;17.69;100.00;101217.22;5073754;28;20021;-49
2023/08/28 07:32:38;;;;;;;0.00;0.00;;;;;;;18.40;100.00;101224.22;5071903;28;20032;-47
2023/08/28 07:35:05;;;;;;;0.00;0.00;;;;;;;19.19;100.00;101219.78;5071022;28;20471;-47
2023/08/28 07:37:31;;;;;;;;;;;;;;;19.69;100.00;101181.28;5071811;28;20666;-47
2023/08/28 07:39:56;;;;;;;0.00;0.00;;;;;;;19.71;100.00;101170.97;5069452;28;19917;-47
2023/08/28 07:42:21;;;;;;;0.00;0.00;;;;;;;19.61;100.00;101167.94;5070693;28;20021;-47
2023/08/28 07:44:47;;;;;;;0.00;0.00;;;;;;;19.51;100.00;101168.53;5070576;28;20421;-46
2023/08/28 07:47:12;;;;;;;0.00;0.00;;;;;;;19.49;100.00;101167.94;5069928;28;20024;-48
2023/08/28 07:49:38;;;;;;;0.00;0.00;;;;;;;19.44;100.00;101170.53;5070115;28;20070;-49
2023/08/28 07:52:04;;;;;;;0.00;0.00;;;;;;;20.11;100.00;101177.66;5065248;28;20042;-48
2023/08/28 07:54:30;;;;;;;0.00;0.00;;;;;;;20.54;100.00;101168.31;5061690;28;20167;-44
2023/08/28 07:56:55;;;;;;;0.00;0.00;;;;;;;21.30;100.00;101171.75;5069599;28;20078;-42
2023/08/28 07:59:20;;;;;;;0.00;0.00;;;;;;;21.31;100.00;101164.38;5067406;28;20036;-47
2023/08/28 08:01:46;;;;;;;0.00;0.00;;;;;;;21.41;100.00;101162.69;5068127;28;20057;-46
2023/08/28 08:04:11;;;;;;;0.00;0.00;;;;;;;21.23;100.00;101157.38;5068952;28;20024;-48
2023/08/28 08:06:36;;;;;;;0.00;0.00;;;;;;;20.95;100.00;101169.13;5071513;28;20404;-48
2023/08/28 08:09:02;;;;;;;0.00;0.00;;;;;;;20.48;100.00;101164.56;5069350;28;20028;-47
2023/08/28 08:11:27;;;;;;;0.00;0.00;;;;;;;19.85;100.00;101174.34;5066757;28;20016;-49
2023/08/28 08:13:53;;;;;;;0.00;0.00;;;;;;;19.27;100.00;101177.69;5068011;28;20208;-49
2023/08/28 08:16:18;;;;;;;0.00;0.00;;;;;;;18.89;100.00;101178.84;5065722;28;20033;-48
2023/08/28 08:18:44;;;;;;;0.13;0.00;;;;;;;18.80;100.00;101177.47;5068693;28;20021;-48
2023/08/28 08:21:09;;;;;;;0.00;0.00;;;;;;;18.63;100.00;101174.50;5069037;28;20032;-50
2023/08/28 08:23:35;;;;;;;0.00;0.00;;;;;;;18.38;100.00;101183.59;5070282;28;20021;-49
2023/08/28 08:26:00;;;;;;;0.00;0.00;;;;;;;18.23;100.00;101190.44;5067618;28;20375;-47
2023/08/28 08:28:25;;;;;;;0.00;0.00;;;;;;;18.18;100.00;101193.84;5068533;28;20025;-47
2023/08/28 08:30:51;;;;;;;0.00;0.00;;;;;;;18.12;100.00;101206.47;5068445;28;20032;-47
2023/08/28 08:33:17;;;;;;;0.00;0.00;;;;;;;18.10;100.00;101218.63;5065656;28;20120;-51
2023/08/28 08:35:43;;;;;;;0.00;0.00;;;;;;;18.73;100.00;101218.44;5071302;28;20017;-48
2023/08/28 08:38:08;;;;;;;0.00;0.00;;;;;;;20.23;100.00;101227.72;5066075;28;20070;-48
2023/08/28 08:40:34;;;;;;;0.00;0.00;;;;;;;22.01;100.00;101182.28;5066376;28;20031;-47
2023/08/28 08:43:00;;;;;;;0.00;0.00;;;;;;;23.93;100.00;101188.78;5069395;28;20035;-46
2023/08/28 08:45:28;;;;;;;0.00;0.00;;;;;;;24.21;100.00;101182.94;5068707;28;20048;-46
2023/08/28 08:47:57;;;;;;;0.00;0.00;;;;;;;25.02;100.00;101178.16;5066649;28;20025;-44
2023/08/28 08:50:23;;;;;;;0.00;0.00;;;;;;;25.94;100.00;101176.41;5068109;28;20085;-47
2023/08/28 08:52:49;;;;;;;0.00;0.00;;;;;;;25.71;98.43;101174.16;5072686;28;20052;-47
2023/08/28 08:55:29;;;;;;;0.00;0.00;;;;;;;25.92;100.00;101177.78;5073253;28;20155;-46
2023/08/28 08:57:57;;;;;;;0.00;0.00;;;;;;;26.80;100.00;101177.28;5069394;28;20028;-50
2023/08/28 09:00:23;;;;;;;0.00;0.00;;;;;;;25.93;100.00;101179.41;5074154;28;20028;-48
2023/08/28 09:02:48;;;;;;;0.00;0.00;;;;;;;25.19;99.96;101176.81;5054639;28;20049;-48
2023/08/28 09:05:15;;;;;;;0.00;0.00;;;;;;;23.74;100.00;101169.94;5072793;28;20051;-47
2023/08/28 09:07:41;;;;;;;0.00;0.00;;;;;;;22.72;100.00;101172.41;5054276;28;20051;-47
2023/08/28 09:10:07;;;;;;;0.00;0.00;;;;;;;21.79;100.00;101174.00;5070103;28;20451;-48
2023/08/28 09:12:33;;;;;;;0.00;0.00;;;;;;;21.13;100.00;101173.59;5074453;28;20082;-47
2023/08/28 09:14:58;;;;;;;0.00;0.00;;;;;;;20.63;100.00;101155.91;5072540;28;20020;-48
2023/08/28 09:17:25;;;;;;;0.00;0.00;;;;;;;20.36;100.00;101164.59;5072228;28;20119;-48
2023/08/28 09:19:52;;;;;;;0.00;0.00;;;;;;;20.05;100.00;101165.78;5073678;28;20039;-48
2023/08/28 09:22:21;;;;;;;0.00;0.00;;;;;;;19.79;100.00;101164.34;5078823;28;20378;-50
2023/08/28 09:24:50;;;;;;;0.00;0.00;;;;;;;20.13;100.00;101164.59;5073612;28;20029;-51
2023/08/28 09:27:16;;;;;;;0.00;0.00;;;;;;;21.48;100.00;101163.34;5073821;28;20036;-47
2023/08/28 09:29:41;;;;;;;0.00;0.00;;;;;;;23.11;100.00;101169.56;5084588;28;20361;-48
2023/08/28 09:32:06;;;;;;;0.00;0.00;;;;;;;23.98;100.00;101166.81;5083768;28;20382;-47
2023/08/28 09:34:39;;;;;;;0.00;0.00;;;;;;;24.60;100.00;101170.81;5064591;28;20036;-48
2023/08/28 09:37:12;;;;;;;0.00;0.00;;;;;;;24.20;100.00;101178.53;5068564;28;20670;-47
2023/08/28 09:39:40;;;;;;;0.00;0.00;;;;;;;23.62;100.00;101177.50;5070099;28;20060;-50
2023/08/28 09:42:08;;;;;;;0.00;0.00;;;;;;;22.70;100.00;101174.56;5054958;28;20032;-47
2023/08/28 09:44:36;;;;;;;0.00;0.00;;;;;;;22.33;100.00;101175.16;5073220;28;20051;-47
2023/08/28 09:47:01;;;;;;;0.00;0.00;;;;;;;21.82;100.00;101168.84;5073896;28;20065;-50
2023/08/28 09:49:27;;;;;;;0.00;0.00;;;;;;;21.25;100.00;101180.69;5073309;28;20036;-49
2023/08/28 09:51:52;;;;;;;0.00;0.00;;;;;;;21.07;100.00;101182.81;5072643;28;20062;-49
2023/08/28 09:54:18;;;;;;;0.00;0.00;;;;;;;21.68;100.00;101173.81;5078074;28;20504;-45
2023/08/28 09:56:44;;;;;;;0.00;0.00;;;;;;;22.95;100.00;101179.50;5080477;28;20027;-48
2023/08/28 09:59:10;;;;;;;0.00;0.00;;;;;;;23.84;100.00;101188.44;5077510;28;20115;-47
2023/08/28 10:01:37;;;;;;;0.00;0.00;;;;;;;23.76;100.00;101176.00;5075878;28;20068;-44
2023/08/28 10:04:10;;;;;;;0.00;0.00;;;;;;;23.85;100.00;101179.91;5072306;28;20028;-48
2023/08/28 10:06:46;;;;;;;0.00;0.00;;;;;;;23.56;100.00;101176.59;5073064;28;20419;-49
2023/08/28 10:09:18;;;;;;;0.00;0.00;;;;;;;23.95;100.00;101190.16;5071416;28;20119;-46
2023/08/28 10:11:45;;;;;;;0.00;0.00;;;;;;;24.50;100.00;101179.84;5055574;28;20029;-45
2023/08/28 10:14:11;;;;;;;0.00;0.00;;;;;;;24.65;98.46;101174.41;5072856;28;20021;-46
2023/08/28 10:16:39;;;;;;;0.00;0.00;;;;;;;24.38;99.90;101173.69;5072810;28;20115;-47
2023/08/28 10:19:34;;;;;;;0.00;0.00;;;;;;;24.25;99.37;101172.22;5075906;28;20108;-44
2023/08/28 10:22:01;;;;;;;0.00;0.00;;;;;;;24.21;97.06;101171.94;5065701;28;20037;-47
2023/08/28 10:24:30;;;;;;;0.00;0.00;;;;;;;24.02;99.69;101181.72;5071967;28;20039;-50
2023/08/28 10:26:56;;;;;;;0.00;0.00;;;;;;;23.99;98.53;101176.75;5073557;28;20075;-50
2023/08/28 10:29:22;;;;;;;0.00;0.00;;;;;;;23.80;97.57;101171.66;5080549;28;20035;-48
2023/08/28 10:31:49;;;;;;;0.00;0.00;;;;;;;24.00;98.65;101175.66;5067616;28;20031;-49
2023/08/28 10:34:15;;;;;;;0.00;0.00;;;;;;;24.31;100.00;101179.44;5070865;28;20112;-44
2023/08/28 10:36:41;;;;;;;0.00;0.00;;;;;;;24.50;96.21;101175.16;5079728;28;20023;-45
2023/08/28 10:39:08;;;;;;;0.00;0.00;;;;;;;24.43;96.42;101170.97;5059264;28;20045;-50
2023/08/28 10:41:34;;;;;;;0.00;0.00;;;;;;;24.05;95.97;101178.44;5054496;28;20056;-46
2023/08/28 10:44:00;;;;;;;0.00;0.00;;;;;;;23.71;96.81;101178.69;5054284;28;20412;-44
2023/08/28 10:46:28;;;;;;;0.00;0.00;;;;;;;23.53;100.00;101187.31;5072750;28;20433;-50
2023/08/28 10:48:58;;;;;;;0.00;0.00;;;;;;;23.53;100.00;101190.03;5054822;28;20118;-46
2023/08/28 10:51:35;;;;;;;0.00;0.00;;;;;;;23.75;98.66;101190.84;5072261;28;20043;-49
2023/08/28 10:54:07;;;;;;;0.00;0.00;;;;;;;23.68;99.37;101187.44;5062037;28;20040;-46
2023/08/28 10:56:34;;;;;;;0.00;0.00;;;;;;;23.99;94.80;101191.31;5055009;28;20055;-47
2023/08/28 10:59:17;;;;;;;0.00;0.00;;;;;;;23.84;98.29;101189.25;5072448;28;20158;-47
2023/08/28 11:01:56;;;;;;;0.00;0.00;;;;;;;24.10;100.00;101197.72;5072224;28;20044;-47
2023/08/28 11:04:23;;;;;;;0.00;0.00;;;;;;;23.55;100.00;101196.94;5072377;28;20028;-47
2023/08/28 11:06:48;;;;;;;0.00;0.00;;;;;;;22.92;100.00;101188.25;5054121;28;20382;-48
2023/08/28 11:09:26;;;;;;;0.00;0.00;;;;;;;22.77;100.00;101196.31;5074119;28;20043;-50
2023/08/28 11:11:51;;;;;;;0.00;0.00;;;;;;;23.25;100.00;101186.50;5072051;28;20064;-49
2023/08/28 11:14:17;;;;;;;0.00;0.00;;;;;;;25.08;94.58;101191.66;5072247;28;20035;-47